WICT2: Wichita River At Wichita Falls, TX

                                SHEF ID:       WICT2     Wichita Rv at Wichita Falls, TX
STATION TYPE:
Regulating: Stage = 18.50, Flow = 5482

PRECIP STAGE RIV-FLOW WTR-TEMP CONDUCT BAT-LOAD
in ft cfs F umho/cm volt
Ccp-Rev Ccp-Rev Ccp-Rev Ccp-Rev Ccp-Rev Ccp-Rev
(America/Chicago)
04/20 00:00 ---- 2.37 59 67.35 2344 12.08
04/20 01:00 ---- 2.39 61 66.65 2347 12.06
04/20 02:00 ---- 2.37 59 65.88 2355 12.04
04/20 03:00 ---- 2.37 59 65.16 2407 11.96
04/20 04:00 ---- 2.36 58 64.49 2460 11.98
04/20 05:00 ---- 2.37 59 63.91 2489 11.96
04/20 06:00 ---- 2.36 58 63.36 2513 11.94
04/20 07:00 ---- 2.34 56 62.82 2562 11.89
04/20 08:00 ---- 2.35 57 62.51 2577 11.94
04/20 09:00 ---- 2.33 55 62.33 2579 12.05
04/20 10:00 ---- 2.33 55 62.71 2630 12.84
04/20 11:00 ---- 2.31 53 63.82 2784 13.20
04/20 12:00 ---- 2.31 53 65.26 2822 12.86
04/20 13:00 ---- 2.32 54 66.70 2784 12.60
04/20 14:00 ---- 2.32 54 68.11 2775 12.48
04/20 15:00 ---- 2.31 53 68.61 2739 12.46
04/20 16:00 ---- 2.32 54 68.88 2681 12.46
04/20 17:00 ---- 2.31 53 69.06 2689 12.40
04/20 18:00 ---- 2.30 51 68.94 2752 12.34
04/20 19:00 ---- 2.31 53 68.95 2806 12.25
04/20 20:00 ---- 2.30 51 68.88 2845 12.18
04/20 21:00 ---- 2.30 51 68.56 2885 12.15
04/20 22:00 ---- 2.31 53 68.23 2937 12.13
04/20 23:00 ---- 2.29 50 67.89 2956 12.12
Data processed at Tue 21Apr2026 04:58 GMT

NOTICE: If you are parsing this page

Please convert to using our Data API. Starting early 2026 we will be migrating to: https://water.usace.army.mil with modern pages rendered in JavaScript. When this migration completes you will no longer be able to scrape this page! CWMSDataAPI (CDA)

Timeseries IDs (TSIDs)

TSIDs used from left to right in the data table
WFAL.Precip-Inc.Total.1Hour.1Hour.Ccp-Rev
WFAL.Stage.Inst.1Hour.0.Ccp-Rev
WFAL.Flow.Inst.1Hour.0.Ccp-Rev
WFAL.Temp-Water.Inst.1Hour.0.Ccp-Rev
WFAL.Cond-Water.Inst.1Hour.0.Ccp-Rev
WFAL.Volt-Battery Load.Inst.1Hour.0.Ccp-Rev

                            

All information presented herein is the property of the government of the United States of America and may be revised or deleted at any time without prior notice. Dissemination of this information without the expressed written consent of the Public Affairs Office, Tulsa District U.S. Army Corps of Engineers is strictly prohibited. These data are gathered electronically and, as presented, have NOT undergone any form of quality control. These data are NOT guaranteed to be valid or correct.